Time;durP1;ratioP1;P1;durP2;ratioP2;P2;SDS_P1;SDS_P2;PMS_P1;PMS_P2;Temp;Humidity;BMP_temperature;BMP_pressure;BME280_temperature;BME280_humidity;BME280_pressure;Samples;Min_cycle;Max_cycle;Signal;HPM_P1;HPM_P2
2021/12/12 00:00:58;;;;;;;2.45;1.30;;;;;;;13.15;41.32;96373.25;5033657;28;20463;-28
2021/12/12 00:03:47;;;;;;;2.00;1.30;;;;;;;13.09;41.43;96372.31;5035080;28;20542;-28
2021/12/12 00:06:33;;;;;;;2.88;1.17;;;;;;;13.12;41.14;96374.13;5032128;28;20056;-28
2021/12/12 00:09:09;;;;;;;1.77;1.20;;;;;;;13.13;41.42;96366.72;5015149;28;20018;-28
2021/12/12 00:11:36;;;;;;;3.33;1.48;;;;;;;13.12;41.45;96365.94;5026599;28;20025;-28
2021/12/12 00:14:19;;;;;;;2.13;1.13;;;;;;;13.06;41.32;96366.97;5034763;28;20079;-28
2021/12/12 00:16:45;;;;;;;4.13;1.50;;;;;;;13.16;41.23;96376.75;5034372;28;20029;-28
2021/12/12 00:19:11;;;;;;;2.10;1.20;;;;;;;13.19;41.28;96382.06;5034472;28;20036;-28
2021/12/12 00:21:40;;;;;;;3.33;1.30;;;;;;;13.16;41.29;96380.22;5034449;28;20022;-28
2021/12/12 00:24:09;;;;;;;1.70;1.17;;;;;;;13.19;41.39;96376.63;5034020;28;20029;-28
2021/12/12 00:26:35;;;;;;;2.22;1.20;;;;;;;13.19;41.14;96392.22;5032672;28;20032;-28
2021/12/12 00:29:01;;;;;;;3.40;1.70;;;;;;;13.13;41.35;96394.69;5034241;28;20032;-28
2021/12/12 00:31:27;;;;;;;1.70;1.08;;;;;;;13.07;41.85;96404.66;5033889;28;20419;-28
2021/12/12 00:33:55;;;;;;;1.92;1.05;;;;;;;13.08;41.90;96410.88;5034008;28;20584;-28
2021/12/12 00:36:23;;;;;;;3.08;0.90;;;;;;;13.14;41.09;96412.59;5034016;28;20030;-28
2021/12/12 00:38:56;;;;;;;1.80;1.10;;;;;;;13.03;41.74;96417.63;5034149;28;20472;-28
2021/12/12 00:41:34;;;;;;;3.28;1.50;;;;;;;13.07;41.44;96429.16;5034398;28;20104;-28
2021/12/12 00:44:01;;;;;;;1.98;1.15;;;;;;;13.07;41.62;96429.16;5034113;28;20025;-28
2021/12/12 00:46:27;;;;;;;2.75;1.10;;;;;;;13.17;41.26;96441.66;5034079;28;20025;-28
2021/12/12 00:48:54;;;;;;;3.30;0.98;;;;;;;13.10;41.10;96439.16;5033875;28;20530;-28
2021/12/12 00:51:27;;;;;;;2.78;1.00;;;;;;;13.08;41.78;96441.56;5033351;28;20056;-28
2021/12/12 00:53:54;;;;;;;2.35;1.30;;;;;;;13.10;41.68;96449.31;5033825;28;20021;-28
2021/12/12 00:56:20;;;;;;;2.30;1.00;;;;;;;13.09;41.47;96458.66;5032445;28;20399;-28
2021/12/12 00:58:45;;;;;;;2.03;1.00;;;;;;;13.05;41.62;96455.31;5033430;28;20045;-28
2021/12/12 01:01:16;;;;;;;2.83;1.17;;;;;;;13.08;41.84;96462.59;5033568;28;20030;-28
2021/12/12 01:03:48;;;;;;;3.58;1.85;;;;;;;13.10;41.88;96476.53;5033919;28;20025;-28
2021/12/12 01:06:14;;;;;;;3.20;1.33;;;;;;;13.11;41.42;96470.63;5032826;28;20064;-29
2021/12/12 01:08:41;;;;;;;3.00;1.02;;;;;;;13.06;41.70;96473.91;5033320;28;20052;-29
2021/12/12 01:11:13;;;;;;;3.45;1.30;;;;;;;13.12;41.22;96468.66;5033280;28;20025;-29
2021/12/12 01:13:39;;;;;;;2.33;0.90;;;;;;;13.20;41.36;96483.59;5033590;28;20072;-29
2021/12/12 01:16:17;;;;;;;2.10;1.27;;;;;;;13.04;41.45;96484.50;5033567;28;20025;-28
2021/12/12 01:18:51;;;;;;;2.92;1.13;;;;;;;13.16;41.38;96493.84;5033475;28;20052;-28
2021/12/12 01:21:22;;;;;;;1.80;1.00;;;;;;;13.10;41.50;96499.06;5033419;28;20029;-28
2021/12/12 01:23:56;;;;;;;3.45;1.30;;;;;;;13.15;41.32;96501.25;5033284;28;20029;-28
2021/12/12 01:26:23;;;;;;;1.85;1.00;;;;;;;13.15;41.41;96505.94;5033555;28;20482;-28
2021/12/12 01:28:54;;;;;;;1.25;1.02;;;;;;;13.12;41.56;96507.53;5033502;28;20030;-28
2021/12/12 01:31:25;;;;;;;2.90;1.00;;;;;;;13.12;41.49;96512.97;5033282;28;20021;-28
2021/12/12 01:33:58;;;;;;;2.95;1.35;;;;;;;13.15;41.28;96512.13;5033272;28;20399;-28
2021/12/12 01:36:42;;;;;;;1.08;0.88;;;;;;;13.21;41.37;96521.28;5030742;28;20509;-29
2021/12/12 01:39:11;;;;;;;1.58;0.90;;;;;;;13.08;41.70;96512.38;5032220;28;20541;-28
2021/12/12 01:41:56;;;;;;;1.70;0.93;;;;;;;13.07;41.66;96527.19;5033542;28;20026;-28
2021/12/12 01:44:22;;;;;;;1.50;1.17;;;;;;;13.02;41.60;96519.56;5033269;28;20033;-28
2021/12/12 01:46:57;;;;;;;2.53;1.00;;;;;;;13.03;41.58;96528.47;5033094;28;20429;-28
2021/12/12 01:49:24;;;;;;;1.58;1.00;;;;;;;12.96;41.42;96526.78;5033399;28;20423;-28
2021/12/12 01:51:52;;;;;;;2.38;1.30;;;;;;;13.02;41.38;96532.41;5033406;28;20152;-28
2021/12/12 01:54:22;;;;;;;2.20;1.13;;;;;;;12.96;41.68;96526.78;5033054;28;20384;-28
2021/12/12 01:56:54;;;;;;;2.05;1.10;;;;;;;12.93;41.79;96538.53;5033155;28;20029;-28
2021/12/12 01:59:23;;;;;;;1.95;1.30;;;;;;;12.99;41.73;96542.22;5032691;28;20119;-28
2021/12/12 02:01:58;;;;;;;3.03;1.23;;;;;;;12.99;41.45;96536.75;5033121;28;20029;-28
2021/12/12 02:04:30;;;;;;;2.47;1.08;;;;;;;13.03;41.43;96537.41;5032976;28;20468;-28
2021/12/12 02:06:57;;;;;;;1.88;1.13;;;;;;;12.98;41.73;96531.78;5033116;28;20026;-28
2021/12/12 02:09:24;;;;;;;3.17;1.20;;;;;;;13.00;41.46;96532.84;5032956;28;20022;-28
2021/12/12 02:11:54;;;;;;;2.80;1.13;;;;;;;12.98;41.47;96521.66;5032869;28;20064;-28
2021/12/12 02:14:21;;;;;;;2.42;1.10;;;;;;;12.95;41.68;96536.91;5033158;28;20029;-28
2021/12/12 02:16:58;;;;;;;3.55;1.20;;;;;;;12.93;41.83;96530.38;5032996;28;20076;-28
2021/12/12 02:36:00;;;;;;;4.72;1.20;;;;;;;12.85;41.73;96557.06;5036401;28;20549;-28
2021/12/12 02:38:29;;;;;;;1.95;1.02;;;;;;;12.88;41.79;96558.88;5036697;28;20029;-29
2021/12/12 02:40:59;;;;;;;2.80;1.10;;;;;;;12.93;41.49;96571.19;5036503;28;20067;-28
2021/12/12 02:43:27;;;;;;;4.18;1.40;;;;;;;12.93;42.03;96573.91;5036445;28;20040;-28
2021/12/12 02:45:56;;;;;;;1.50;0.93;;;;;;;12.86;41.95;96576.84;5036380;28;20037;-28
2021/12/12 02:48:34;;;;;;;3.00;1.10;;;;;;;12.97;41.51;96582.75;5036397;28;20124;-28
2021/12/12 02:51:08;;;;;;;2.45;0.85;;;;;;;12.87;42.13;96589.25;5034873;28;20017;-28
2021/12/12 02:53:39;;;;;;;1.40;0.90;;;;;;;12.92;41.68;96589.50;5035970;28;20056;-28
2021/12/12 02:56:28;;;;;;;2.80;1.15;;;;;;;12.97;41.41;96593.63;5068020;28;20484;-28
2021/12/12 02:58:55;;;;;;;2.03;1.05;;;;;;;12.90;41.51;96585.69;5034392;28;20140;-28
2021/12/12 03:01:30;;;;;;;2.10;1.10;;;;;;;12.85;41.59;96587.00;5035994;28;20064;-28
2021/12/12 03:03:57;;;;;;;1.73;1.08;;;;;;;12.90;41.65;96588.41;5036061;28;20128;-28
2021/12/12 03:06:28;;;;;;;1.58;1.00;;;;;;;12.89;41.26;96584.16;5035856;28;20511;-28
2021/12/12 03:09:04;;;;;;;2.25;1.45;;;;;;;12.86;42.04;96593.19;5035731;28;20021;-28
2021/12/12 03:11:30;;;;;;;2.85;1.15;;;;;;;12.84;41.66;96590.16;5066299;28;20028;-29
2021/12/12 03:13:56;;;;;;;2.40;1.33;;;;;;;12.93;41.60;96598.41;5034708;28;20116;-28
2021/12/12 03:16:23;;;;;;;2.08;1.05;;;;;;;12.92;41.73;96592.22;5035672;28;20025;-28
2021/12/12 03:18:49;;;;;;;2.20;1.35;;;;;;;12.97;41.13;96601.03;5035633;28;20029;-28
2021/12/12 03:21:29;;;;;;;2.85;1.52;;;;;;;12.95;41.30;96602.22;5035640;28;20465;-28
2021/12/12 03:23:57;;;;;;;4.05;1.30;;;;;;;12.83;41.46;96610.41;5035686;28;20076;-28
2021/12/12 03:26:24;;;;;;;3.80;1.38;;;;;;;12.90;41.36;96613.66;5035580;28;20025;-29
2021/12/12 03:28:54;;;;;;;1.80;1.10;;;;;;;12.92;41.25;96613.97;5035289;28;20471;-28
2021/12/12 03:31:42;;;;;;;2.47;1.27;;;;;;;12.89;41.72;96608.66;5035339;28;20056;-28
2021/12/12 03:34:11;;;;;;;3.30;1.30;;;;;;;12.85;41.50;96614.22;5035443;28;20021;-28
2021/12/12 03:36:37;;;;;;;1.65;0.98;;;;;;;12.79;41.33;96628.78;5035398;28;20029;-28
2021/12/12 03:39:11;;;;;;;1.63;0.90;;;;;;;12.78;41.41;96621.81;5035307;28;20033;-28
2021/12/12 03:41:40;;;;;;;1.92;1.23;;;;;;;12.84;41.75;96633.69;5035218;28;20026;-28
2021/12/12 03:44:10;;;;;;;1.77;1.17;;;;;;;12.83;41.32;96645.78;5035054;28;20124;-28
2021/12/12 03:46:36;;;;;;;2.38;1.35;;;;;;;12.82;41.40;96644.25;5034158;28;20037;-28
2021/12/12 03:49:04;;;;;;;2.20;1.30;;;;;;;12.82;41.57;96646.97;5035213;28;20428;-28
2021/12/12 03:51:30;;;;;;;1.67;1.17;;;;;;;12.82;41.29;96658.63;5035033;28;20403;-28
2021/12/12 03:53:56;;;;;;;3.15;1.10;;;;;;;12.85;41.67;96668.66;5034743;28;20411;-28
2021/12/12 03:56:23;;;;;;;2.22;1.00;;;;;;;12.74;41.43;96670.16;5035248;28;20033;-28
2021/12/12 03:58:49;;;;;;;3.58;1.20;;;;;;;12.79;41.52;96675.06;5034682;28;20100;-28
2021/12/12 04:01:20;;;;;;;2.08;1.02;;;;;;;12.82;41.15;96677.69;5034578;28;20049;-28
2021/12/12 04:03:47;;;;;;;1.77;1.17;;;;;;;12.84;41.33;96688.91;5034767;28;20025;-28
2021/12/12 04:06:16;;;;;;;2.10;1.30;;;;;;;12.85;41.29;96692.38;5034713;28;20041;-28
2021/12/12 04:08:45;;;;;;;2.08;1.10;;;;;;;12.88;41.27;96699.66;5035202;28;20419;-28
2021/12/12 04:11:23;;;;;;;1.42;1.10;;;;;;;12.77;41.61;96699.22;5034800;28;20022;-28
2021/12/12 04:13:52;;;;;;;2.60;1.30;;;;;;;12.86;41.46;96702.06;5033599;28;20030;-28
2021/12/12 04:16:19;;;;;;;2.47;1.20;;;;;;;12.81;41.13;96710.78;5034537;28;20021;-28
2021/12/12 04:18:45;;;;;;;1.70;1.15;;;;;;;12.78;41.58;96708.91;5034421;28;20022;-28
2021/12/12 04:21:12;;;;;;;2.35;1.27;;;;;;;12.73;41.29;96710.22;5034273;28;20032;-28
2021/12/12 04:23:38;;;;;;;2.90;1.20;;;;;;;12.76;41.26;96714.78;5034370;28;20032;-28
2021/12/12 04:26:20;;;;;;;2.45;1.27;;;;;;;12.82;41.03;96720.47;5034538;28;20040;-28
2021/12/12 04:29:00;;;;;;;3.88;1.45;;;;;;;12.81;41.60;96716.22;5034279;28;20033;-28
2021/12/12 04:31:26;;;;;;;2.13;1.17;;;;;;;12.81;41.26;96722.44;5034475;28;20067;-28
2021/12/12 04:33:53;;;;;;;1.95;1.20;;;;;;;12.76;41.42;96720.22;5034015;28;20029;-28
2021/12/12 04:36:26;;;;;;;2.92;1.20;;;;;;;12.83;40.94;96735.59;5034124;28;20100;-28
2021/12/12 04:38:51;;;;;;;1.75;1.20;;;;;;;12.85;41.07;96730.50;5034258;28;20026;-28
2021/12/12 04:41:22;;;;;;;1.45;1.20;;;;;;;12.83;41.09;96733.66;5033990;28;20029;-28
2021/12/12 04:43:47;;;;;;;1.88;1.00;;;;;;;12.79;41.39;96741.16;5034094;28;20033;-28
2021/12/12 04:46:25;;;;;;;2.60;1.35;;;;;;;12.63;41.26;96737.72;5034451;28;20120;-28
2021/12/12 04:51:39;;;;;;;3.75;1.20;;;;;;;12.77;41.26;96746.25;5034429;28;20498;-28
2021/12/12 04:54:15;;;;;;;2.25;1.25;;;;;;;12.79;40.94;96759.44;5034056;28;20025;-28
2021/12/12 04:57:10;;;;;;;2.33;1.40;;;;;;;12.73;41.24;96750.28;5033902;28;20029;-28
2021/12/12 04:59:48;;;;;;;3.83;1.20;;;;;;;12.77;41.30;96759.09;5033141;28;20053;-28
2021/12/12 05:02:25;;;;;;;1.52;1.08;;;;;;;12.73;41.02;96759.22;5033634;28;20036;-28
2021/12/12 05:05:26;;;;;;;1.73;1.00;;;;;;;12.69;41.55;96760.50;5033651;28;20061;-28
2021/12/12 05:08:03;;;;;;;2.75;1.23;;;;;;;12.75;41.15;96764.19;5033306;28;20072;-28
2021/12/12 05:10:34;;;;;;;2.22;1.23;;;;;;;12.79;41.37;96768.38;5032281;28;20025;-28
2021/12/12 05:13:17;;;;;;;3.40;1.23;;;;;;;12.78;41.39;96772.28;5033556;28;20467;-28
2021/12/12 05:15:50;;;;;;;2.72;0.90;;;;;;;12.71;41.03;96767.03;5033528;28;20061;-28
2021/12/12 05:18:27;;;;;;;1.75;1.17;;;;;;;12.72;41.12;96779.47;5033486;28;20084;-28
2021/12/12 05:21:02;;;;;;;2.95;1.20;;;;;;;12.77;41.15;96783.59;5033404;28;20112;-28
2021/12/12 05:23:31;;;;;;;3.25;1.10;;;;;;;12.80;40.70;96782.72;5033483;28;20018;-28
2021/12/12 05:26:01;;;;;;;3.00;1.35;;;;;;;12.73;40.92;96791.88;5033360;28;20540;-28
2021/12/12 05:28:32;;;;;;;2.60;1.40;;;;;;;12.70;41.44;96803.63;5033467;28;20467;-28
2021/12/12 05:31:00;;;;;;;2.33;1.33;;;;;;;12.72;41.01;96803.19;5033346;28;20511;-28
2021/12/12 05:33:28;;;;;;;1.90;1.10;;;;;;;12.77;41.21;96811.56;5033308;28;20125;-28
2021/12/12 05:35:54;;;;;;;1.85;1.33;;;;;;;12.75;40.88;96805.03;5033218;28;20025;-28
2021/12/12 05:38:23;;;;;;;2.67;1.10;;;;;;;12.65;41.27;96814.25;5033148;28;20033;-28
2021/12/12 05:40:49;;;;;;;1.90;1.02;;;;;;;12.68;41.08;96816.13;5033037;28;20025;-28
2021/12/12 05:43:15;;;;;;;2.38;1.00;;;;;;;12.43;42.04;96823.00;5033158;28;20048;-28
2021/12/12 05:45:41;;;;;;;2.60;1.30;;;;;;;12.65;41.10;96827.84;5033294;28;20545;-28
2021/12/12 05:48:08;;;;;;;2.05;1.10;;;;;;;12.53;41.57;96829.34;5033183;28;20033;-28
2021/12/12 05:50:36;;;;;;;2.25;1.00;;;;;;;12.50;41.45;96839.09;5033413;28;20017;-28
2021/12/12 05:53:02;;;;;;;2.42;1.17;;;;;;;12.59;41.23;96836.56;5033170;28;20025;-29
2021/12/12 05:55:54;;;;;;;2.55;1.30;;;;;;;12.71;41.02;96847.91;5032998;28;20033;-28
2021/12/12 05:58:21;;;;;;;2.85;1.20;;;;;;;12.68;40.89;96851.50;5033532;28;20053;-28
2021/12/12 06:00:55;;;;;;;2.13;1.17;;;;;;;12.67;40.83;96844.53;5032999;28;20100;-28
2021/12/12 06:03:24;;;;;;;3.08;1.13;;;;;;;12.61;41.08;96843.53;5033036;28;20078;-28
2021/12/12 06:05:52;;;;;;;2.75;1.20;;;;;;;12.70;40.96;96854.56;5033026;28;20025;-28
2021/12/12 06:08:20;;;;;;;2.95;1.20;;;;;;;12.71;40.67;96856.09;5033197;28;20029;-28
2021/12/12 06:10:47;;;;;;;2.15;1.17;;;;;;;12.78;40.52;96845.75;5036107;28;20025;-28
2021/12/12 06:13:16;;;;;;;1.85;1.25;;;;;;;12.74;41.00;96847.03;5036751;28;20028;-28
2021/12/12 06:15:45;;;;;;;3.03;1.55;;;;;;;12.73;40.77;96843.59;5036711;28;20052;-28
2021/12/12 06:18:12;;;;;;;3.25;1.30;;;;;;;12.67;40.63;96853.44;5036651;28;20033;-28
2021/12/12 06:20:40;;;;;;;2.03;1.38;;;;;;;12.72;40.79;96854.91;5035417;28;20382;-29
2021/12/12 06:23:06;;;;;;;1.98;1.13;;;;;;;12.70;40.70;96852.59;5036696;28;20022;-29
2021/12/12 06:25:31;;;;;;;3.38;1.95;;;;;;;12.68;40.74;96852.25;5036602;28;20113;-28
2021/12/12 06:27:57;;;;;;;1.40;0.85;;;;;;;12.68;40.68;96860.41;5036473;28;20029;-28
2021/12/12 06:30:24;;;;;;;2.55;1.55;;;;;;;12.71;40.81;96867.72;5036422;28;20036;-28
2021/12/12 06:32:52;;;;;;;1.60;1.13;;;;;;;12.63;40.79;96874.53;5036564;28;20099;-29
2021/12/12 06:35:19;;;;;;;2.40;1.30;;;;;;;12.55;41.09;96873.22;5036348;28;20101;-28
2021/12/12 06:37:45;;;;;;;2.10;1.25;;;;;;;12.71;40.82;96875.13;5036406;28;20037;-28
2021/12/12 06:40:15;;;;;;;2.55;1.10;;;;;;;12.68;40.52;96876.75;5036509;28;20387;-28
2021/12/12 06:42:41;;;;;;;2.42;1.20;;;;;;;12.69;40.68;96888.41;5036463;28;20021;-28
2021/12/12 06:45:10;;;;;;;3.03;1.42;;;;;;;12.82;40.63;96883.78;5036384;28;20029;-28
2021/12/12 06:47:36;;;;;;;2.65;1.42;;;;;;;12.76;40.33;96888.19;5036145;28;20022;-28
2021/12/12 06:50:04;;;;;;;2.05;1.45;;;;;;;12.73;40.61;96892.56;5036188;28;20029;-28
2021/12/12 06:52:31;;;;;;;2.05;1.40;;;;;;;12.61;40.61;96893.25;5036007;28;20361;-28
2021/12/12 06:54:57;;;;;;;2.00;1.33;;;;;;;12.53;40.96;96903.56;5036119;28;20048;-28
2021/12/12 06:57:22;;;;;;;3.65;1.63;;;;;;;12.71;40.88;96891.47;5035937;28;20475;-28
2021/12/12 06:59:50;;;;;;;2.55;1.42;;;;;;;12.59;40.44;96907.31;5035971;28;20124;-28
2021/12/12 07:02:16;;;;;;;3.08;1.40;;;;;;;12.67;40.72;96912.56;5035939;28;20029;-28
2021/12/12 07:04:44;;;;;;;2.90;1.20;;;;;;;12.63;40.94;96918.06;5035975;28;20021;-28
2021/12/12 07:07:13;;;;;;;2.75;1.33;;;;;;;12.66;40.98;96913.75;5035723;28;20038;-28
2021/12/12 07:09:39;;;;;;;2.50;1.30;;;;;;;12.67;40.77;96913.31;5035946;28;20021;-28
2021/12/12 07:12:09;;;;;;;2.38;1.35;;;;;;;12.61;40.87;96927.88;5035828;28;20492;-28
2021/12/12 07:14:36;;;;;;;3.20;1.45;;;;;;;12.62;40.45;96932.09;5036129;28;20033;-28
2021/12/12 07:17:03;;;;;;;4.40;1.60;;;;;;;12.62;40.88;96932.09;5035664;28;20098;-29
2021/12/12 07:19:29;;;;;;;2.85;1.27;;;;;;;12.59;40.48;96937.22;5035525;28;20037;-28
2021/12/12 07:21:56;;;;;;;2.08;1.42;;;;;;;12.54;40.60;96937.72;5034972;28;20037;-28
2021/12/12 07:24:23;;;;;;;2.60;1.50;;;;;;;12.62;41.02;96942.97;5035795;28;20437;-28
2021/12/12 07:26:49;;;;;;;3.38;2.00;;;;;;;12.54;40.98;96954.06;5035738;28;20108;-28
2021/12/12 07:29:14;;;;;;;2.60;1.70;;;;;;;12.54;40.72;96947.84;5033701;28;20049;-28
2021/12/12 07:31:42;;;;;;;2.95;1.48;;;;;;;12.64;40.86;96954.97;5032902;28;20395;-28
2021/12/12 07:34:13;;;;;;;3.35;1.98;;;;;;;12.66;40.90;96957.28;5033449;28;20029;-29
2021/12/12 07:36:48;;;;;;;4.38;1.83;;;;;;;12.59;40.74;96963.69;5033566;28;20036;-28
2021/12/12 07:39:15;;;;;;;2.20;1.23;;;;;;;12.54;40.72;96962.22;5033425;28;20471;-28
2021/12/12 07:41:43;;;;;;;2.22;1.52;;;;;;;12.55;40.66;96962.97;5033260;28;20041;-28
2021/12/12 07:44:12;;;;;;;2.17;1.70;;;;;;;12.56;40.68;96956.34;5033514;28;20125;-28
2021/12/12 07:46:38;;;;;;;2.97;1.60;;;;;;;12.48;40.95;96972.09;5033513;28;20025;-28
2021/12/12 07:49:05;;;;;;;3.63;1.73;;;;;;;12.71;40.40;96965.69;5022571;28;20083;-28
2021/12/12 07:51:32;;;;;;;3.25;1.70;;;;;;;12.56;40.95;96978.13;5013519;28;20025;-29
2021/12/12 07:54:01;;;;;;;2.13;1.40;;;;;;;12.56;40.75;96984.31;5013422;28;20044;-28
2021/12/12 07:56:30;;;;;;;3.00;1.70;;;;;;;12.67;40.69;96989.50;5013569;28;20467;-28
2021/12/12 07:58:58;;;;;;;3.30;1.88;;;;;;;12.58;40.77;96987.41;5013178;28;20483;-28
2021/12/12 08:01:25;;;;;;;2.30;1.65;;;;;;;12.34;41.74;96988.75;5013452;28;20029;-28
2021/12/12 08:03:56;;;;;;;3.78;1.70;;;;;;;12.51;41.42;96989.50;5010451;28;20032;-29
2021/12/12 08:06:23;;;;;;;6.45;1.50;;;;;;;12.64;40.49;96990.34;5013191;28;20021;-28
2021/12/12 08:08:50;;;;;;;3.58;1.55;;;;;;;12.64;40.71;96995.03;5013315;28;20026;-29
2021/12/12 08:11:27;;;;;;;2.10;1.40;;;;;;;12.66;40.75;96992.66;5013087;28;20029;-29
2021/12/12 08:13:53;;;;;;;2.28;1.23;;;;;;;12.48;41.33;96987.66;5013257;28;20030;-29
2021/12/12 08:16:19;;;;;;;2.20;1.52;;;;;;;12.60;41.09;96995.13;5013078;28;20037;-28
2021/12/12 08:18:45;;;;;;;3.22;1.63;;;;;;;12.62;40.61;96997.41;5012399;28;20119;-28
2021/12/12 08:21:12;;;;;;;1.88;1.30;;;;;;;12.62;40.83;97002.84;5012855;28;20030;-28
2021/12/12 08:23:39;;;;;;;2.83;1.65;;;;;;;12.62;40.83;97013.72;5012971;28;20475;-28
2021/12/12 08:26:07;;;;;;;2.67;1.80;;;;;;;12.66;40.59;97004.31;5027609;28;20033;-28
2021/12/12 08:28:34;;;;;;;3.28;1.30;;;;;;;12.63;40.76;97007.09;5032694;28;20029;-28
2021/12/12 08:31:00;;;;;;;2.65;1.50;;;;;;;12.66;40.36;97003.53;5032440;28;20013;-28
2021/12/12 08:33:26;;;;;;;3.38;1.70;;;;;;;12.40;41.12;96995.19;5031969;28;20443;-29
2021/12/12 08:35:52;;;;;;;2.75;1.50;;;;;;;12.55;40.72;96996.41;5032372;28;20128;-28
2021/12/12 08:38:18;;;;;;;1.95;1.52;;;;;;;12.73;40.52;97008.81;5032193;28;20108;-29
2021/12/12 08:40:49;;;;;;;2.53;1.45;;;;;;;12.66;40.88;97009.75;5032425;28;20411;-28
2021/12/12 08:43:17;;;;;;;1.73;1.30;;;;;;;12.72;40.28;97013.50;5032244;28;20040;-28
2021/12/12 08:45:48;;;;;;;2.85;1.40;;;;;;;12.70;40.76;97013.16;5032228;28;20078;-28
2021/12/12 08:48:17;;;;;;;2.75;1.30;;;;;;;12.47;41.26;97003.22;5032482;28;20029;-28
2021/12/12 08:50:48;;;;;;;2.00;1.40;;;;;;;12.54;41.08;97019.34;5032183;28;20531;-28
2021/12/12 08:53:17;;;;;;;2.38;1.20;;;;;;;12.67;40.91;97015.97;5032146;28;20387;-29
2021/12/12 08:55:45;;;;;;;1.42;1.13;;;;;;;12.69;40.36;97025.22;5032050;28;20028;-28
2021/12/12 08:58:17;;;;;;;2.10;1.38;;;;;;;12.63;40.60;97032.34;5032083;28;20060;-28
2021/12/12 09:01:15;;;;;;;2.17;1.15;;;;;;;12.71;40.40;97038.41;5032173;28;20029;-28
2021/12/12 09:03:45;;;;;;;2.10;1.48;;;;;;;12.71;40.32;97041.91;5030142;28;20491;-29
2021/12/12 09:06:14;;;;;;;2.05;1.23;;;;;;;12.70;40.63;97058.66;5030612;28;20383;-28
2021/12/12 09:09:04;;;;;;;2.42;1.48;;;;;;;12.74;40.37;97056.59;5031939;28;20029;-28
2021/12/12 09:11:32;;;;;;;2.25;1.20;;;;;;;12.77;40.51;97055.75;5031958;28;20056;-28
2021/12/12 09:14:08;;;;;;;2.40;1.20;;;;;;;12.68;40.72;97071.91;5031818;28;20040;-28
2021/12/12 09:16:42;;;;;;;2.67;1.40;;;;;;;12.76;40.38;97073.28;5032099;28;20033;-28
2021/12/12 09:19:24;;;;;;;2.03;0.98;;;;;;;12.77;40.62;97064.69;5031498;28;20033;-28
2021/12/12 09:21:56;;;;;;;1.60;1.13;;;;;;;12.80;40.31;97079.41;5031891;28;20032;-28
2021/12/12 09:24:32;;;;;;;2.13;1.40;;;;;;;12.79;40.43;97073.19;5029941;28;20084;-28
2021/12/12 09:27:05;;;;;;;2.10;1.40;;;;;;;12.86;40.11;97080.41;5012172;28;20440;-28
2021/12/12 09:29:44;;;;;;;3.92;1.67;;;;;;;12.33;40.81;97068.81;5011706;28;20029;-28
2021/12/12 09:32:21;;;;;;;2.45;1.52;;;;;;;12.59;41.06;97086.88;5011870;28;20473;-29
2021/12/12 09:35:07;;;;;;;1.77;1.23;;;;;;;12.48;40.73;97074.72;5011968;28;20729;-28
2021/12/12 09:37:46;;;;;;;2.58;1.45;;;;;;;12.70;40.48;97081.19;5011737;28;20026;-28
2021/12/12 09:40:28;;;;;;;2.50;1.60;;;;;;;12.76;40.27;97081.44;5011773;28;20037;-29
2021/12/12 09:42:53;;;;;;;3.17;1.50;;;;;;;12.89;40.00;97098.63;5012016;28;20068;-29
2021/12/12 09:45:38;;;;;;;3.13;1.85;;;;;;;12.74;40.24;97098.19;5014258;28;20057;-29
2021/12/12 09:51:33;;;;;;;2.15;1.40;;;;;;;12.42;40.33;97093.47;5016054;28;20515;-28
2021/12/12 09:54:18;;;;;;;2.47;1.60;;;;;;;12.53;40.84;97098.69;5015619;28;20040;-29
2021/12/12 09:56:50;;;;;;;2.20;1.67;;;;;;;12.70;40.28;97088.59;5015660;28;20026;-28
2021/12/12 09:59:54;;;;;;;3.03;1.70;;;;;;;12.77;40.17;97093.84;5027248;28;20050;-28
2021/12/12 10:02:35;;;;;;;2.60;1.67;;;;;;;12.74;40.51;97097.41;5033422;28;20021;-28
2021/12/12 10:05:34;;;;;;;3.65;1.85;;;;;;;12.82;40.21;97102.28;5033873;28;20399;-28
2021/12/12 10:08:09;;;;;;;3.20;1.80;;;;;;;12.79;40.21;97094.19;5022356;28;20495;-28
2021/12/12 10:10:57;;;;;;;4.40;1.88;;;;;;;12.65;40.50;97091.81;5032400;28;20037;-28
2021/12/12 10:13:45;;;;;;;3.85;1.90;;;;;;;12.69;40.79;97087.06;5033295;28;20037;-29
2021/12/12 10:16:26;;;;;;;2.80;1.55;;;;;;;12.71;40.39;97082.72;5030019;28;20383;-29
2021/12/12 10:19:01;;;;;;;3.05;2.13;;;;;;;12.23;41.60;97083.41;5033499;28;20418;-29
2021/12/12 10:22:04;;;;;;;4.18;1.95;;;;;;;12.73;40.54;97080.34;5035112;28;20030;-28
2021/12/12 10:25:04;;;;;;;3.95;1.45;;;;;;;12.47;40.79;97076.66;5020045;28;20037;-29
2021/12/12 10:27:56;;;;;;;2.78;1.63;;;;;;;12.68;40.17;97072.69;5025432;28;20033;-29
2021/12/12 10:30:34;;;;;;;3.43;1.60;;;;;;;12.59;40.52;97073.28;5031515;28;20057;-28
2021/12/12 10:33:20;;;;;;;8.65;2.67;;;;;;;12.30;41.28;97083.25;5036690;28;20060;-28
2021/12/12 10:36:07;;;;;;;6.70;2.20;;;;;;;12.52;40.60;97083.53;5036328;28;20098;-28
2021/12/12 10:38:54;;;;;;;4.45;2.10;;;;;;;12.69;40.11;97081.63;5036407;28;20108;-28
2021/12/12 10:41:52;;;;;;;8.18;2.40;;;;;;;12.63;40.12;97086.00;5036349;28;20026;-28
2021/12/12 10:44:36;;;;;;;4.97;2.47;;;;;;;12.35;39.54;97077.31;5035673;28;20037;-28
2021/12/12 10:47:13;;;;;;;4.95;2.47;;;;;;;12.50;40.77;97075.03;5036491;28;20151;-28
2021/12/12 10:49:56;;;;;;;6.13;2.10;;;;;;;12.68;40.49;97082.81;5036062;28;20029;-28
2021/12/12 10:52:49;;;;;;;5.93;1.73;;;;;;;12.84;39.67;97083.59;5036263;28;20388;-28
2021/12/12 10:55:23;;;;;;;3.63;1.92;;;;;;;12.46;40.36;97087.97;5034107;28;20051;-28
2021/12/12 10:57:57;;;;;;;3.80;1.63;;;;;;;12.76;40.00;97086.88;5036250;28;20037;-28
2021/12/12 11:00:26;;;;;;;4.05;1.80;;;;;;;12.76;39.66;97087.66;5036006;28;20430;-28
2021/12/12 11:03:04;;;;;;;4.50;1.98;;;;;;;12.41;39.68;97086.50;5034631;28;20045;-28
2021/12/12 11:05:37;;;;;;;3.28;1.67;;;;;;;12.09;40.51;97075.53;5035660;28;20029;-28
2021/12/12 11:08:11;;;;;;;2.53;1.65;;;;;;;12.10;40.33;97066.97;5036135;28;20076;-28
2021/12/12 11:10:41;;;;;;;3.20;1.67;;;;;;;11.79;39.11;97077.28;5035273;28;20022;-29
2021/12/12 11:13:28;;;;;;;3.20;1.60;;;;;;;12.25;40.56;97081.00;5035975;28;20030;-28
2021/12/12 11:16:00;;;;;;;4.80;1.67;;;;;;;12.41;39.98;97088.44;5046988;28;20017;-28
2021/12/12 11:18:55;;;;;;;4.32;1.67;;;;;;;12.56;39.95;97086.97;5035898;28;20025;-28
2021/12/12 11:21:28;;;;;;;2.75;1.45;;;;;;;12.79;39.32;97084.09;5024066;28;20036;-28
2021/12/12 11:24:01;;;;;;;3.97;1.50;;;;;;;12.66;39.64;97079.72;5033538;28;20037;-28
2021/12/12 11:26:45;;;;;;;3.38;1.60;;;;;;;12.76;39.94;97065.88;5013938;28;20045;-29
2021/12/12 11:29:16;;;;;;;3.35;1.90;;;;;;;12.64;39.32;97090.28;5014112;28;20037;-28
2021/12/12 11:31:48;;;;;;;2.80;1.58;;;;;;;12.43;38.40;97073.25;5013923;28;20025;-29
2021/12/12 11:34:14;;;;;;;3.97;1.85;;;;;;;12.32;40.30;97072.72;5012413;28;20032;-29
2021/12/12 11:37:09;;;;;;;3.85;1.75;;;;;;;12.36;40.07;97089.72;5013830;28;20109;-29
2021/12/12 11:39:50;;;;;;;2.40;1.58;;;;;;;12.26;37.93;97076.34;5032435;28;20045;-28
2021/12/12 11:42:20;;;;;;;3.40;1.60;;;;;;;12.57;39.91;97091.97;5032659;28;20018;-29
2021/12/12 11:44:59;;;;;;;4.47;1.95;;;;;;;12.48;39.78;97093.75;5030422;28;20075;-29
2021/12/12 11:48:08;;;;;;;2.92;1.75;;;;;;;12.19;39.83;97086.19;5025068;28;20033;-29
2021/12/12 11:50:49;;;;;;;4.68;1.92;;;;;;;12.32;39.35;97101.88;5012192;28;20046;-28
2021/12/12 11:53:29;;;;;;;4.95;1.98;;;;;;;12.53;39.97;97099.44;5029071;28;20021;-28
2021/12/12 11:56:00;;;;;;;2.10;1.60;;;;;;;12.58;39.01;97106.34;5033215;28;20045;-28
2021/12/12 11:58:39;;;;;;;4.22;1.80;;;;;;;12.72;39.13;97097.88;5033116;28;20041;-29
2021/12/12 12:01:17;;;;;;;4.70;1.60;;;;;;;12.12;39.05;97112.75;5033276;28;20051;-29
2021/12/12 12:04:01;;;;;;;2.80;1.55;;;;;;;12.38;38.64;97103.66;5033020;28;20021;-29
2021/12/12 12:06:49;;;;;;;5.15;2.83;;;;;;;12.25;39.95;97110.94;5029850;28;20036;-29
2021/12/12 12:09:46;;;;;;;2.83;1.50;;;;;;;12.50;40.04;97115.84;5032246;28;20029;-28
2021/12/12 12:12:17;;;;;;;2.88;1.50;;;;;;;12.49;39.40;97114.31;5032253;28;20021;-28
2021/12/12 12:15:01;;;;;;;3.35;1.80;;;;;;;12.12;39.70;97091.75;5027237;28;20030;-29
2021/12/12 12:17:35;;;;;;;2.60;1.60;;;;;;;12.49;39.31;97097.97;5032323;28;20079;-28
2021/12/12 12:20:45;;;;;;;3.00;1.45;;;;;;;12.48;39.33;97102.69;5032466;28;20028;-29
2021/12/12 12:23:41;;;;;;;3.85;1.70;;;;;;;12.67;39.19;97092.91;5013229;28;20048;-28